| time (UTC) | temp C | wind direction | speed KPH | gust KPH | rain 1hr cm | rain 24hr cm | rain mn cm | humidity % | barometer mb |
| 20260906221003 | 37 | 155 | 9.7 | 16.1 | 0.00 | 0.00 | 0.00 | 35 | 1010.5 |
| 20260906220502 | -17 | 103 | 4.8 | 16.1 | 0.00 | 0.00 | 0.00 | 1010.5 | |
| 20260906220003 | -17 | 127 | 9.7 | 19.3 | 0.00 | 0.00 | 0.00 | 1010.5 | |
| 20260906215502 | -17 | 118 | 11.3 | 19.3 | 0.00 | 0.00 | 0.00 | 1010.7 | |
| 20260906215037 | 36 | 87 | 12.9 | 19.3 | 0.00 | 0.00 | 0.00 | 35 | 1010.6 |
| 20260906214257 | 37 | 125 | 12.9 | 17.7 | 0.00 | 0.00 | 0.00 | 34 | 1010.8 |
| 20260906213502 | 37 | 164 | 8.0 | 17.7 | 0.00 | 0.00 | 0.00 | 35 | 1010.8 |
| 20260906213004 | -17 | 54 | 9.7 | 24.1 | 0.00 | 0.00 | 0.00 | 1011.0 | |
| 20260906212502 | -17 | 69 | 12.9 | 24.1 | 0.00 | 0.00 | 0.00 | 1010.8 | |
| 20260906212005 | -17 | 87 | 8.0 | 9.7 | 0.00 | 0.00 | 0.00 | 1011.0 | |
| 20260906211504 | -17 | 87 | 8.0 | 14.5 | 0.00 | 0.00 | 0.00 | 1011.0 | |
| 20260906211249 | -17 | 24 | 6.4 | 16.1 | 0.00 | 0.00 | 0.00 | 1011.0 | |
| 20260906210504 | 37 | 118 | 4.8 | 19.3 | 0.00 | 0.00 | 0.00 | 34 | 1011.3 |
| 20260906210004 | 37 | 85 | 11.3 | 22.5 | 0.00 | 0.00 | 0.00 | 34 | 1011.4 |
| 20260906205503 | 37 | 100 | 14.5 | 22.5 | 0.00 | 0.00 | 0.00 | 35 | 1011.4 |
| 20260906205254 | 37 | 158 | 11.3 | 22.5 | 0.00 | 0.00 | 0.00 | 35 | 1011.4 |
| 20260906204503 | 37 | 83 | 12.9 | 22.5 | 0.00 | 0.00 | 0.00 | 34 | 1011.6 |
| 20260906204002 | 37 | 197 | 1.6 | 14.5 | 0.00 | 0.00 | 0.00 | 35 | 1011.6 |
| 20260906203502 | 37 | 42 | 6.4 | 19.3 | 0.00 | 0.00 | 0.00 | 35 | 1011.6 |
| 20260906203003 | 37 | 103 | 8.0 | 22.5 | 0.00 | 0.00 | 0.00 | 35 | 1011.7 |
| 20260906202503 | 37 | 169 | 9.7 | 22.5 | 0.00 | 0.00 | 0.00 | 35 | 1011.7 |
| 20260906202002 | 37 | 47 | 9.7 | 19.3 | 0.00 | 0.00 | 0.00 | 37 | 1011.7 |
| 20260906201502 | 36 | 235 | 6.4 | 14.5 | 0.00 | 0.00 | 0.00 | 37 | 1011.8 |
| 20260906201254 | 36 | 39 | 3.2 | 20.9 | 0.00 | 0.00 | 0.00 | 37 | 1011.8 |
| 20260906200504 | 36 | 114 | 11.3 | 20.9 | 0.00 | 0.00 | 0.00 | 37 | 1012.0 |
| 20260906200004 | 36 | 72 | 6.4 | 19.3 | 0.00 | 0.00 | 0.00 | 37 | 1012.2 |
| 20260906195501 | 36 | 99 | 9.7 | 14.5 | 0.00 | 0.00 | 0.00 | 37 | 1012.1 |
| 20260906195003 | 36 | 54 | 12.9 | 22.5 | 0.00 | 0.00 | 0.00 | 37 | 1012.1 |
| 20260906194755 | 36 | 54 | 12.9 | 22.5 | 0.00 | 0.00 | 0.00 | 37 | 1012.2 |
| 20260906194004 | 36 | 82 | 12.9 | 20.9 | 0.00 | 0.00 | 0.00 | 37 | 1012.2 |
| 20260906193503 | 36 | 66 | 11.3 | 20.9 | 0.00 | 0.00 | 0.00 | 37 | 1012.3 |
| 20260906193001 | 36 | 116 | 9.7 | 20.9 | 0.00 | 0.00 | 0.00 | 37 | 1012.3 |
| 20260906192504 | 36 | 169 | 8.0 | 24.1 | 0.00 | 0.00 | 0.00 | 37 | 1012.4 |
| 20260906192006 | 36 | 113 | 12.9 | 24.1 | 0.00 | 0.00 | 0.00 | 37 | 1012.6 |
| 20260906191503 | 36 | 68 | 11.3 | 22.5 | 0.00 | 0.00 | 0.00 | 37 | 1012.5 |
| 20260906191042 | 36 | 109 | 16.1 | 22.5 | 0.00 | 0.00 | 0.00 | 37 | 1012.5 |
| 20260906190003 | 36 | 185 | 6.4 | 17.7 | 0.00 | 0.00 | 0.00 | 38 | 1012.7 |
| 20260906185756 | 36 | 82 | 9.7 | 17.7 | 0.00 | 0.00 | 0.00 | 37 | 1012.7 |
| 20260906185002 | 36 | 42 | 6.4 | 19.3 | 0.00 | 0.00 | 0.00 | 38 | 1012.8 |
| 20260906184504 | 36 | 100 | 12.9 | 19.3 | 0.00 | 0.00 | 0.00 | 38 | 1012.9 |
| 20260906184002 | 36 | 316 | 3.2 | 11.3 | 0.00 | 0.00 | 0.00 | 38 | 1013.1 |
| 20260906183502 | 35 | 0 | 0.0 | 20.9 | 0.00 | 0.00 | 0.00 | 38 | 1013.2 |
| 20260906183004 | 35 | 55 | 11.3 | 20.9 | 0.00 | 0.00 | 0.00 | 39 | 1013.3 |
| 20260906182502 | 35 | 130 | 6.4 | 14.5 | 0.00 | 0.00 | 0.00 | 39 | 1013.4 |
| 20260906182004 | 35 | 30 | 6.4 | 14.5 | 0.00 | 0.00 | 0.00 | 40 | 1013.3 |
| 20260906181502 | 35 | 28 | 6.4 | 22.5 | 0.00 | 0.00 | 0.00 | 39 | 1013.3 |
| 20260906181004 | 35 | 32 | 6.4 | 22.5 | 0.00 | 0.00 | 0.00 | 39 | 1013.6 |
| 20260906180502 | 35 | 65 | 12.9 | 20.9 | 0.00 | 0.00 | 0.00 | 39 | 1013.6 |
| 20260906180301 | 35 | 188 | 4.8 | 16.1 | 0.00 | 0.00 | 0.00 | 41 | 1013.7 |
| 20260906175501 | -17 | 121 | 9.7 | 16.1 | 0.00 | 0.00 | 0.00 | 1013.8 | |
| 20260906175003 | 35 | 37 | 3.2 | 17.7 | 0.00 | 0.00 | 0.00 | 41 | 1014.0 |
| 20260906174757 | 35 | 28 | 12.9 | 20.9 | 0.00 | 0.00 | 0.00 | 41 | 1014.0 |
| 20260906174005 | 35 | 85 | 9.7 | 20.9 | 0.00 | 0.00 | 0.00 | 41 | 1014.1 |
| 20260906173503 | 35 | 54 | 14.5 | 20.9 | 0.00 | 0.00 | 0.00 | 41 | 1014.1 |
| 20260906173256 | 35 | 116 | 11.3 | 20.9 | 0.00 | 0.00 | 0.00 | 41 | 1014.2 |
| 20260906172503 | 34 | 51 | 9.7 | 17.7 | 0.00 | 0.00 | 0.00 | 43 | 1014.3 |
| 20260906172002 | 33 | 62 | 8.0 | 14.5 | 0.00 | 0.00 | 0.00 | 44 | 1014.4 |
| 20260906171503 | 33 | 27 | 6.4 | 16.1 | 0.00 | 0.00 | 0.00 | 44 | 1014.4 |
| 20260906171257 | 33 | 30 | 9.7 | 19.3 | 0.00 | 0.00 | 0.00 | 44 | 1014.4 |
| 20260906170756 | 33 | 52 | 9.7 | 19.3 | 0.00 | 0.00 | 0.00 | 44 | 1014.5 |
| 20260906170002 | 33 | 18 | 8.0 | 19.3 | 0.00 | 0.00 | 0.00 | 45 | 1014.6 |
| 20260906165759 | 33 | 66 | 9.7 | 19.3 | 0.00 | 0.00 | 0.00 | 44 | 1014.6 |
| 20260906165004 | 33 | 42 | 6.4 | 14.5 | 0.00 | 0.00 | 0.00 | 44 | 1014.7 |
| 20260906164502 | 33 | 72 | 6.4 | 14.5 | 0.00 | 0.00 | 0.00 | 45 | 1014.6 |
| 20260906164004 | 34 | 8 | 6.4 | 11.3 | 0.00 | 0.00 | 0.00 | 44 | 1014.7 |
| 20260906163504 | 34 | 338 | 3.2 | 11.3 | 0.00 | 0.00 | 0.00 | 44 | 1014.6 |
| 20260906163002 | 34 | 320 | 6.4 | 11.3 | 0.00 | 0.00 | 0.00 | 45 | 1014.6 |
| 20260906162503 | 34 | 348 | 6.4 | 11.3 | 0.00 | 0.00 | 0.00 | 45 | 1014.7 |
| 20260906162002 | 33 | 227 | 1.6 | 9.7 | 0.00 | 0.00 | 0.00 | 45 | 1014.7 |
| 20260906161502 | 33 | 62 | 4.8 | 14.5 | 0.00 | 0.00 | 0.00 | 46 | 1014.7 |
| 20260906161002 | 33 | 1 | 9.7 | 14.5 | 0.00 | 0.00 | 0.00 | 46 | 1014.7 |
| 20260906160503 | 33 | 34 | 6.4 | 14.5 | 0.00 | 0.00 | 0.00 | 46 | 1014.6 |
| 20260906160005 | 34 | 31 | 8.0 | 14.5 | 0.00 | 0.00 | 0.00 | 46 | 1014.7 |
| 20260906155504 | 34 | 316 | 1.6 | 11.3 | 0.00 | 0.00 | 0.00 | 47 | 1014.7 |
| 20260906155003 | 34 | 269 | 8.0 | 11.3 | 0.00 | 0.00 | 0.00 | 47 | 1014.6 |
| 20260906154758 | 33 | 295 | 6.4 | 8.0 | 0.00 | 0.00 | 0.00 | 48 | 1014.6 |
| 20260906154040 | 33 | 288 | 1.6 | 6.4 | 0.00 | 0.00 | 0.00 | 48 | 1014.5 |
| 20260906153005 | 33 | 3 | 3.2 | 8.0 | 0.00 | 0.00 | 0.00 | 52 | 1014.5 |
| 20260906152503 | -17 | 337 | 6.4 | 8.0 | 0.00 | 0.00 | 0.00 | 1014.5 | |
| 20260906152002 | 32 | 323 | 3.2 | 4.8 | 0.00 | 0.00 | 0.00 | 54 | 1014.5 |
| 20260906151502 | 32 | 23 | 4.8 | 3.2 | 0.00 | 0.00 | 0.00 | 54 | 1014.5 |
| 20260906151004 | 31 | 23 | 4.8 | 8.0 | 0.00 | 0.00 | 0.00 | 54 | 1014.5 |
| 20260906150504 | 31 | 278 | 3.2 | 8.0 | 0.00 | 0.00 | 0.00 | 54 | 1014.4 |
| 20260906150005 | 31 | 289 | 3.2 | 8.0 | 0.00 | 0.00 | 0.00 | 55 | 1014.4 |
| 20260906145503 | 31 | 307 | 3.2 | 8.0 | 0.00 | 0.00 | 0.00 | 56 | 1014.4 |
| 20260906145254 | 31 | 281 | 1.6 | 8.0 | 0.00 | 0.00 | 0.00 | 56 | 1014.4 |
| 20260906144504 | 31 | 224 | 3.2 | 6.4 | 0.00 | 0.00 | 0.00 | 62 | 1014.5 |
| 20260906144003 | -17 | 265 | 3.2 | 8.0 | 0.00 | 0.00 | 0.00 | 1014.5 | |
| 20260906143503 | -17 | 269 | 3.2 | 8.0 | 0.00 | 0.00 | 0.00 | 1014.6 | |
| 20260906143005 | -17 | 302 | 0.0 | 4.8 | 0.00 | 0.00 | 0.00 | 1014.6 | |
| 20260906142504 | -17 | 317 | 1.6 | 8.0 | 0.00 | 0.00 | 0.00 | 1014.6 | |
| 20260906142003 | 28 | 259 | 3.2 | 8.0 | 0.00 | 0.00 | 0.00 | 62 | 1014.6 |
| 20260906141503 | 28 | 310 | 3.2 | 6.4 | 0.00 | 0.00 | 0.00 | 62 | 1014.6 |
| 20260906141004 | 28 | 261 | 3.2 | 6.4 | 0.00 | 0.00 | 0.00 | 62 | 1014.5 |
| 20260906140503 | 28 | 162 | 0.0 | 3.2 | 0.00 | 0.00 | 0.00 | 63 | 1014.5 |
| 20260906140002 | 28 | 162 | 0.0 | 3.2 | 0.00 | 0.00 | 0.00 | 64 | 1014.5 |
| 20260906135503 | 27 | 162 | 1.6 | 3.2 | 0.00 | 0.00 | 0.00 | 64 | 1014.5 |
| 20260906135004 | 27 | 162 | 0.0 | 0.0 | 0.00 | 0.00 | 0.00 | 66 | 1014.4 |
| 20260906134502 | 26 | 162 | 0.0 | 0.0 | 0.00 | 0.00 | 0.00 | 67 | 1014.4 |
| 20260906134002 | 26 | 162 | 0.0 | 0.0 | 0.00 | 0.00 | 0.00 | 68 | 1014.3 |
| 20260906133501 | 26 | 162 | 0.0 | 0.0 | 0.00 | 0.00 | 0.00 | 69 | 1014.3 |
| 20260906133004 | 25 | 162 | 0.0 | 0.0 | 0.00 | 0.00 | 0.00 | 76 | 1014.3 |
| 20260906132504 | 24 | 162 | 0.0 | 0.0 | 0.00 | 0.00 | 0.00 | 76 | 1014.3 |
| 20260906132004 | 24 | 162 | 0.0 | 0.0 | 0.00 | 0.00 | 0.00 | 76 | 1014.2 |
| 20260906131504 | -17 | 162 | 0.0 | 0.0 | 0.00 | 0.00 | 0.00 | 1014.2 | |
| 20260906131003 | 23 | 162 | 0.0 | 0.0 | 0.00 | 0.00 | 0.00 | 76 | 1014.2 |
| 20260906130503 | 23 | 162 | 0.0 | 0.0 | 0.00 | 0.00 | 0.00 | 76 | 1014.0 |
| 20260906130003 | 23 | 162 | 0.0 | 0.0 | 0.00 | 0.00 | 0.00 | 76 | 1014.0 |
| 20260906125505 | 22 | 162 | 0.0 | 0.0 | 0.00 | 0.00 | 0.00 | 76 | 1014.0 |
| 20260906125004 | 22 | 162 | 0.0 | 0.0 | 0.00 | 0.00 | 0.00 | 75 | 1013.9 |
| 20260906124503 | 22 | 162 | 0.0 | 0.0 | 0.00 | 0.00 | 0.00 | 75 | 1013.9 |
| 20260906124003 | 22 | 162 | 0.0 | 0.0 | 0.00 | 0.00 | 0.00 | 75 | 1013.8 |
| 20260906123757 | 22 | 162 | 0.0 | 0.0 | 0.00 | 0.00 | 0.00 | 74 | 1013.9 |
| 20260906123004 | 22 | 162 | 0.0 | 0.0 | 0.00 | 0.00 | 0.00 | 74 | 1013.7 |
| 20260906122504 | 22 | 162 | 0.0 | 1.6 | 0.00 | 0.00 | 0.00 | 73 | 1013.6 |
| 20260906122002 | 22 | 162 | 0.0 | 3.2 | 0.00 | 0.00 | 0.00 | 73 | 1013.7 |
| 20260906121504 | 22 | 162 | 1.6 | 3.2 | 0.00 | 0.00 | 0.00 | 73 | 1013.5 |
| 20260906121003 | 23 | 162 | 1.6 | 3.2 | 0.00 | 0.00 | 0.00 | 73 | 1013.4 |
| 20260906120759 | 23 | 162 | 0.0 | 0.0 | 0.00 | 0.00 | 0.00 | 73 | 1013.3 |
| 20260906120002 | 23 | 162 | 0.0 | 0.0 | 0.00 | 0.00 | 0.00 | 73 | 1013.3 |
| 20260906115541 | 23 | 162 | 0.0 | 1.6 | 0.00 | 0.00 | 0.00 | 73 | 1013.3 |
| 20260906114504 | 23 | 162 | 1.6 | 4.8 | 0.00 | 0.00 | 0.00 | 72 | 1013.2 |
| 20260906114003 | 23 | 162 | 1.6 | 4.8 | 0.00 | 0.00 | 0.00 | 72 | 1013.2 |
| 20260906113504 | 23 | 162 | 1.6 | 4.8 | 0.00 | 0.00 | 0.00 | 72 | 1013.1 |
| 20260906113003 | 23 | 162 | 1.6 | 3.2 | 0.00 | 0.00 | 0.00 | 72 | 1013.2 |
| 20260906112504 | 23 | 162 | 1.6 | 6.4 | 0.00 | 0.00 | 0.00 | 72 | 1013.2 |
| 20260906112002 | 23 | 162 | 1.6 | 6.4 | 0.00 | 0.00 | 0.00 | 72 | 1012.9 |
| 20260906111502 | 23 | 162 | 1.6 | 6.4 | 0.00 | 0.00 | 0.00 | 72 | 1013.1 |
| 20260906111004 | 23 | 162 | 3.2 | 4.8 | 0.00 | 0.00 | 0.00 | 72 | 1012.9 |
| 20260906110506 | 23 | 162 | 3.2 | 4.8 | 0.00 | 0.00 | 0.00 | 71 | 1012.8 |
| 20260906110005 | 23 | 162 | 1.6 | 3.2 | 0.00 | 0.00 | 0.00 | 70 | 1012.8 |
| 20260906105505 | 23 | 162 | 1.6 | 3.2 | 0.00 | 0.00 | 0.00 | 71 | 1012.7 |
| 20260906105002 | 23 | 162 | 0.0 | 4.8 | 0.00 | 0.00 | 0.00 | 70 | 1012.7 |
| 20260906104755 | 23 | 162 | 1.6 | 4.8 | 0.00 | 0.00 | 0.00 | 70 | 1012.7 |
| 20260906104253 | 24 | 162 | 3.2 | 4.8 | 0.00 | 0.00 | 0.00 | 70 | 1012.7 |
| 20260906103503 | 24 | 162 | 1.6 | 3.2 | 0.00 | 0.00 | 0.00 | 69 | 1012.7 |
| 20260906103003 | 24 | 162 | 1.6 | 3.2 | 0.00 | 0.00 | 0.00 | 69 | 1012.7 |
| 20260906102504 | 24 | 162 | 1.6 | 4.8 | 0.00 | 0.00 | 0.00 | 69 | 1012.6 |
| 20260906102003 | 24 | 162 | 3.2 | 4.8 | 0.00 | 0.00 | 0.00 | 68 | 1012.7 |
| 20260906101752 | 25 | 162 | 1.6 | 3.2 | 0.00 | 0.00 | 0.00 | 68 | 1012.6 |
| 20260906101001 | 25 | 162 | 0.0 | 3.2 | 0.00 | 0.00 | 0.00 | 68 | 1012.7 |
| 20260906100503 | 25 | 162 | 1.6 | 3.2 | 0.00 | 0.00 | 0.00 | 67 | 1012.5 |
| 20260906100002 | 25 | 162 | 0.0 | 3.2 | 0.00 | 0.00 | 0.00 | 67 | 1012.5 |
| 20260906095502 | 25 | 162 | 1.6 | 3.2 | 0.00 | 0.00 | 0.00 | 67 | 1012.5 |
| 20260906095004 | 25 | 162 | 1.6 | 3.2 | 0.00 | 0.00 | 0.00 | 66 | 1012.5 |
| 20260906094504 | 25 | 162 | 1.6 | 3.2 | 0.00 | 0.00 | 0.00 | 67 | 1012.6 |
| 20260906094003 | 25 | 162 | 1.6 | 3.2 | 0.00 | 0.00 | 0.00 | 66 | 1012.6 |
| 20260906093502 | 25 | 162 | 1.6 | 4.8 | 0.00 | 0.00 | 0.00 | 66 | 1012.5 |
| 20260906093257 | 25 | 162 | 3.2 | 4.8 | 0.00 | 0.00 | 0.00 | 66 | 1012.4 |
| 20260906092503 | 25 | 162 | 1.6 | 6.4 | 0.00 | 0.00 | 0.00 | 66 | 1012.5 |
| 20260906092004 | 25 | 162 | 3.2 | 6.4 | 0.00 | 0.00 | 0.00 | 65 | 1012.5 |
| 20260906091504 | 26 | 133 | 1.6 | 6.4 | 0.00 | 0.00 | 0.00 | 65 | 1012.4 |
| 20260906091004 | 26 | 161 | 1.6 | 3.2 | 0.00 | 0.00 | 0.00 | 65 | 1012.4 |
| 20260906090502 | 26 | 168 | 0.0 | 6.4 | 0.00 | 0.00 | 0.00 | 65 | 1012.4 |
| 20260906090250 | 26 | 168 | 3.2 | 8.0 | 0.00 | 0.00 | 0.00 | 65 | 1012.4 |
| 20260906085504 | 26 | 137 | 4.8 | 8.0 | 0.00 | 0.00 | 0.00 | 64 | 1012.3 |
| 20260906085003 | 26 | 145 | 4.8 | 8.0 | 0.00 | 0.00 | 0.00 | 64 | 1012.2 |
| 20260906084503 | 26 | 147 | 4.8 | 11.3 | 0.00 | 0.00 | 0.00 | 64 | 1012.3 |
| 20260906084005 | 26 | 152 | 6.4 | 11.3 | 0.00 | 0.00 | 0.00 | 64 | 1012.4 |
| 20260906083504 | 26 | 135 | 6.4 | 8.0 | 0.00 | 0.00 | 0.00 | 64 | 1012.5 |
| 20260906083003 | 26 | 109 | 4.8 | 6.4 | 0.00 | 0.00 | 0.00 | 63 | 1012.4 |
| 20260906082503 | 26 | 145 | 4.8 | 8.0 | 0.00 | 0.00 | 0.00 | 63 | 1012.3 |
| 20260906082002 | 26 | 157 | 4.8 | 8.0 | 0.00 | 0.00 | 0.00 | 63 | 1012.2 |
| 20260906081754 | 26 | 168 | 4.8 | 9.7 | 0.00 | 0.00 | 0.00 | 63 | 1012.2 |
| 20260906081003 | 26 | 152 | 6.4 | 14.5 | 0.00 | 0.00 | 0.00 | 63 | 1012.2 |
| 20260906080505 | 26 | 142 | 4.8 | 14.5 | 0.00 | 0.00 | 0.00 | 63 | 1012.2 |
| 20260906080256 | 26 | 125 | 8.0 | 19.3 | 0.00 | 0.00 | 0.00 | 62 | 1012.2 |
| 20260906075502 | 26 | 190 | 11.3 | 19.3 | 0.00 | 0.00 | 0.00 | 62 | 1012.3 |
| 20260906075257 | 26 | 148 | 6.4 | 9.7 | 0.00 | 0.00 | 0.00 | 61 | 1012.3 |
| 20260906074503 | 26 | 128 | 3.2 | 11.3 | 0.00 | 0.00 | 0.00 | 61 | 1012.4 |
| 20260906074039 | 26 | 155 | 6.4 | 11.3 | 0.00 | 0.00 | 0.00 | 61 | 1012.3 |
| 20260906073001 | 27 | 144 | 8.0 | 11.3 | 0.00 | 0.00 | 0.00 | 60 | 1012.6 |
| 20260906072502 | 27 | 151 | 8.0 | 14.5 | 0.00 | 0.00 | 0.00 | 60 | 1012.6 |
| 20260906072001 | 27 | 134 | 9.7 | 14.5 | 0.00 | 0.00 | 0.00 | 59 | 1012.6 |
| 20260906071502 | 27 | 158 | 8.0 | 16.1 | 0.00 | 0.00 | 0.00 | 59 | 1012.7 |
| 20260906071003 | 27 | 121 | 8.0 | 16.1 | 0.00 | 0.00 | 0.00 | 59 | 1012.7 |
| 20260906070757 | 27 | 130 | 6.4 | 11.3 | 0.00 | 0.00 | 0.00 | 58 | 1012.7 |
| 20260906070004 | 27 | 131 | 8.0 | 16.1 | 0.00 | 0.00 | 0.00 | 58 | 1012.6 |
| 20260906065748 | 27 | 142 | 8.0 | 20.9 | 0.00 | 0.00 | 0.00 | 58 | 1012.7 |
| 20260906065003 | 27 | 138 | 9.7 | 20.9 | 0.00 | 0.00 | 0.00 | 55 | 1012.9 |
| 20260906064504 | 27 | 147 | 8.0 | 19.3 | 0.00 | 0.00 | 0.00 | 55 | 1012.8 |
| 20260906064003 | 27 | 125 | 11.3 | 19.3 | 0.00 | 0.00 | 0.00 | 55 | 1012.8 |
| 20260906063503 | 27 | 151 | 8.0 | 11.3 | 0.00 | 0.00 | 0.00 | 55 | 1012.8 |
| 20260906063004 | 27 | 144 | 6.4 | 11.3 | 0.00 | 0.00 | 0.00 | 55 | 1012.9 |
| 20260906062502 | 27 | 137 | 4.8 | 11.3 | 0.00 | 0.00 | 0.00 | 54 | 1013.1 |
| 20260906062003 | 27 | 151 | 6.4 | 11.3 | 0.00 | 0.00 | 0.00 | 54 | 1013.1 |
| 20260906061501 | 27 | 133 | 9.7 | 11.3 | 0.00 | 0.00 | 0.00 | 54 | 1013.2 |
| 20260906061002 | 27 | 141 | 6.4 | 9.7 | 0.00 | 0.00 | 0.00 | 54 | 1013.2 |
| 20260906060503 | 27 | 133 | 6.4 | 8.0 | 0.00 | 0.00 | 0.00 | 54 | 1013.2 |
| 20260906060002 | 27 | 151 | 4.8 | 9.7 | 0.00 | 0.00 | 0.00 | 54 | 1013.1 |
| 20260906055502 | 27 | 161 | 6.4 | 14.5 | 0.00 | 0.00 | 0.00 | 54 | 1013.2 |
| 20260906055003 | 27 | 142 | 6.4 | 14.5 | 0.00 | 0.00 | 0.00 | 54 | 1013.3 |
| 20260906054504 | 27 | 127 | 8.0 | 11.3 | 0.00 | 0.00 | 0.00 | 54 | 1013.2 |
| 20260906054004 | 27 | 128 | 9.7 | 11.3 | 0.00 | 0.00 | 0.00 | 53 | 1013.2 |
| 20260906053502 | 27 | 147 | 8.0 | 11.3 | 0.00 | 0.00 | 0.00 | 53 | 1013.2 |
| 20260906053004 | 27 | 118 | 8.0 | 11.3 | 0.00 | 0.00 | 0.00 | 53 | 1013.2 |
| 20260906052504 | 28 | 125 | 6.4 | 11.3 | 0.00 | 0.00 | 0.00 | 53 | 1012.9 |
| 20260906052002 | 28 | 165 | 6.4 | 9.7 | 0.00 | 0.00 | 0.00 | 52 | 1012.9 |
| 20260906051502 | 28 | 127 | 6.4 | 9.7 | 0.00 | 0.00 | 0.00 | 52 | 1013.1 |
| 20260906051004 | 28 | 147 | 6.4 | 14.5 | 0.00 | 0.00 | 0.00 | 52 | 1013.1 |
| 20260906050759 | 28 | 128 | 8.0 | 14.5 | 0.00 | 0.00 | 0.00 | 52 | 1013.2 |
| 20260906050002 | 28 | 114 | 8.0 | 14.5 | 0.00 | 0.00 | 0.00 | 52 | 1013.1 |
| 20260906045539 | 28 | 133 | 9.7 | 14.5 | 0.00 | 0.00 | 0.00 | 52 | 1013.1 |
| 20260906044756 | 28 | 152 | 8.0 | 11.3 | 0.00 | 0.00 | 0.00 | 50 | 1012.8 |
| 20260906044002 | -17 | 151 | 6.4 | 14.5 | 0.00 | 0.00 | 0.00 | 1013.1 | |
| 20260906043503 | -17 | 159 | 9.7 | 14.5 | 0.00 | 0.00 | 0.00 | 1013.1 | |
| 20260906043002 | 29 | 135 | 8.0 | 14.5 | 0.00 | 0.00 | 0.00 | 50 | 1013.1 |
| 20260906042504 | 29 | 138 | 6.4 | 14.5 | 0.00 | 0.00 | 0.00 | 50 | 1013.1 |
| 20260906042001 | 29 | 121 | 8.0 | 11.3 | 0.00 | 0.00 | 0.00 | 49 | 1012.9 |
| 20260906041502 | 29 | 137 | 8.0 | 11.3 | 0.00 | 0.00 | 0.00 | 49 | 1012.8 |
| 20260906041002 | 29 | 168 | 6.4 | 9.7 | 0.00 | 0.00 | 0.00 | 48 | 1012.8 |
| 20260906040756 | 29 | 118 | 4.8 | 11.3 | 0.00 | 0.00 | 0.00 | 48 | 1012.9 |
| 20260906040251 | 30 | 128 | 8.0 | 11.3 | 0.00 | 0.00 | 0.00 | 48 | 1012.9 |
| 20260906035503 | 30 | 135 | 9.7 | 11.3 | 0.00 | 0.00 | 0.00 | 48 | 1012.9 |
| 20260906035002 | 30 | 145 | 6.4 | 14.5 | 0.00 | 0.00 | 0.00 | 48 | 1012.8 |
| 20260906034755 | 30 | 125 | 9.7 | 16.1 | 0.00 | 0.00 | 0.00 | 48 | 1012.7 |
| 20260906034002 | 30 | 144 | 9.7 | 16.1 | 0.00 | 0.00 | 0.00 | 48 | 1012.7 |
| 20260906033502 | -17 | 116 | 9.7 | 11.3 | 0.00 | 0.00 | 0.00 | 1012.6 | |
| 20260906033031 | 30 | 111 | 8.0 | 11.3 | 0.00 | 0.00 | 0.00 | 47 | 1012.7 |
| 20260906032005 | 30 | 113 | 8.0 | 11.3 | 0.00 | 0.00 | 0.00 | 47 | 1012.5 |
| 20260906031504 | 30 | 118 | 6.4 | 11.3 | 0.00 | 0.00 | 0.00 | 46 | 1012.3 |
| 20260906031254 | 30 | 107 | 6.4 | 11.3 | 0.00 | 0.00 | 0.00 | 46 | 1012.4 |
| 20260906030503 | 30 | 123 | 8.0 | 16.1 | 0.00 | 0.00 | 0.00 | 46 | 1012.3 |
| 20260906030003 | -17 | 106 | 8.0 | 16.1 | 0.00 | 0.00 | 0.00 | 1012.2 | |
| 20260906025503 | 31 | 110 | 8.0 | 14.5 | 0.00 | 0.00 | 0.00 | 45 | 1012.1 |
| 20260906025300 | 31 | 121 | 6.4 | 17.7 | 0.00 | 0.00 | 0.00 | 45 | 1012.1 |
| 20260906024502 | 31 | 130 | 8.0 | 17.7 | 0.00 | 0.00 | 0.00 | 45 | 1012.0 |
| 20260906024001 | 31 | 97 | 8.0 | 14.5 | 0.00 | 0.00 | 0.00 | 45 | 1011.9 |
| 20260906023504 | 31 | 117 | 8.0 | 14.5 | 0.00 | 0.00 | 0.00 | 44 | 1011.9 |
| 20260906023002 | 31 | 120 | 8.0 | 11.3 | 0.00 | 0.00 | 0.00 | 44 | 1011.9 |
| 20260906022505 | -17 | 116 | 6.4 | 14.5 | 0.00 | 0.00 | 0.00 | 1011.8 | |
| 20260906022003 | -17 | 116 | 6.4 | 14.5 | 0.00 | 0.00 | 0.00 | 1011.8 | |
| 20260906021503 | 31 | 123 | 6.4 | 14.5 | 0.00 | 0.00 | 0.00 | 43 | 1011.7 |
| 20260906021001 | 31 | 120 | 8.0 | 14.5 | 0.00 | 0.00 | 0.00 | 43 | 1011.7 |
| 20260906020502 | 31 | 104 | 9.7 | 14.5 | 0.00 | 0.00 | 0.00 | 43 | 1011.7 |
| 20260906020001 | 32 | 125 | 8.0 | 14.5 | 0.00 | 0.00 | 0.00 | 42 | 1011.5 |
| 20260906015501 | 32 | 114 | 9.7 | 14.5 | 0.00 | 0.00 | 0.00 | 42 | 1011.5 |
| 20260906015002 | 32 | 130 | 8.0 | 14.5 | 0.00 | 0.00 | 0.00 | 41 | 1011.6 |
| 20260906014755 | -17 | 100 | 6.4 | 14.5 | 0.00 | 0.00 | 0.00 | 1011.4 | |
| 20260906014004 | 32 | 100 | 8.0 | 11.3 | 0.00 | 0.00 | 0.00 | 40 | 1011.3 |
| 20260906013503 | 32 | 131 | 8.0 | 17.7 | 0.00 | 0.00 | 0.00 | 40 | 1011.2 |
| 20260906013252 | 32 | 123 | 9.7 | 19.3 | 0.00 | 0.00 | 0.00 | 40 | 1010.9 |
| 20260906012503 | 33 | 141 | 8.0 | 19.3 | 0.00 | 0.00 | 0.00 | 39 | 1010.9 |
| 20260906012002 | 33 | 94 | 11.3 | 19.3 | 0.00 | 0.00 | 0.00 | 39 | 1010.8 |
| 20260906011503 | 33 | 130 | 9.7 | 19.3 | 0.00 | 0.00 | 0.00 | 39 | 1010.8 |
| 20260906011256 | 33 | 123 | 9.7 | 17.7 | 0.00 | 0.00 | 0.00 | 39 | 1010.7 |
| 20260906010504 | -17 | 124 | 9.7 | 17.7 | 0.00 | 0.00 | 0.00 | 1010.6 | |
| 20260906010002 | 33 | 117 | 12.9 | 19.3 | 0.00 | 0.00 | 0.00 | 38 | 1010.6 |
| 20260906005504 | 33 | 137 | 9.7 | 22.5 | 0.00 | 0.00 | 0.00 | 38 | 1010.4 |
| 20260906005300 | 33 | 120 | 11.3 | 22.5 | 0.00 | 0.00 | 0.00 | 38 | 1010.5 |
| 20260906004756 | 34 | 130 | 9.7 | 24.1 | 0.00 | 0.00 | 0.00 | 37 | 1010.5 |
| 20260906004005 | 34 | 99 | 11.3 | 24.1 | 0.00 | 0.00 | 0.00 | 37 | 1010.5 |
| 20260906003504 | 34 | 151 | 9.7 | 19.3 | 0.00 | 0.00 | 0.00 | 37 | 1010.5 |
| 20260906003005 | 34 | 111 | 11.3 | 19.3 | 0.00 | 0.00 | 0.00 | 37 | 1010.5 |
| 20260906002503 | 35 | 124 | 9.7 | 19.3 | 0.00 | 0.00 | 0.00 | 37 | 1010.5 |
| 20260906002003 | 35 | 128 | 11.3 | 19.3 | 0.00 | 0.00 | 0.00 | 36 | 1010.3 |
| 20260906001505 | 35 | 124 | 12.9 | 25.7 | 0.00 | 0.00 | 0.00 | 36 | 1010.4 |
| 20260906001002 | 35 | 109 | 16.1 | 25.7 | 0.00 | 0.00 | 0.00 | 36 | 1010.3 |
| 20260906000758 | 35 | 93 | 16.1 | 22.5 | 0.00 | 0.00 | 0.00 | 36 | 1010.3 |
| 20260906000002 | 35 | 133 | 12.9 | 22.5 | 0.00 | 0.00 | 0.00 | 36 | 1010.4 |
| 20260905235538 | 35 | 159 | 14.5 | 22.5 | 0.00 | 0.00 | 0.00 | 36 | 1010.3 |
| 20260905234501 | 35 | 116 | 12.9 | 17.7 | 0.00 | 0.00 | 0.00 | 36 | 1010.3 |
| 20260905234004 | 35 | 141 | 11.3 | 22.5 | 0.00 | 0.00 | 0.00 | 36 | 1010.3 |
| 20260905233502 | 35 | 93 | 14.5 | 24.1 | 0.00 | 0.00 | 0.00 | 36 | 1010.2 |
| 20260905233003 | 36 | 103 | 14.5 | 24.1 | 0.00 | 0.00 | 0.00 | 36 | 1010.2 |
| 20260905232504 | 36 | 116 | 14.5 | 19.3 | 0.00 | 0.00 | 0.00 | 36 | 1010.0 |
| 20260905232003 | 36 | 147 | 12.9 | 19.3 | 0.00 | 0.00 | 0.00 | 37 | 1010.2 |
| 20260905231503 | 35 | 133 | 11.3 | 19.3 | 0.00 | 0.00 | 0.00 | 37 | 1009.9 |
| 20260905231004 | 35 | 97 | 9.7 | 16.1 | 0.00 | 0.00 | 0.00 | 37 | 1009.9 |
| 20260905230504 | 36 | 111 | 8.0 | 22.5 | 0.00 | 0.00 | 0.00 | 37 | 1010.0 |
| 20260905230343 | 36 | 134 | 12.9 | 22.5 | 0.00 | 0.00 | 0.00 | 36 | 1010.0 |
| 20260905225002 | 36 | 86 | 11.3 | 24.1 | 0.00 | 0.00 | 0.00 | 36 | 1010.0 |
| 20260905224503 | 36 | 135 | 14.5 | 25.7 | 0.00 | 0.00 | 0.00 | 36 | 1010.0 |
| 20260905224002 | 36 | 125 | 11.3 | 25.7 | 0.00 | 0.00 | 0.00 | 36 | 1010.0 |
| 20260905223504 | -17 | 87 | 12.9 | 19.3 | 0.00 | 0.00 | 0.00 | 1010.0 | |
| 20260905223004 | 37 | 83 | 9.7 | 17.7 | 0.00 | 0.00 | 0.00 | 35 | 1010.1 |
| 20260905222758 | 37 | 65 | 8.0 | 20.9 | 0.00 | 0.00 | 0.00 | 35 | 1010.1 |
| 20260905222003 | 37 | 73 | 8.0 | 22.5 | 0.00 | 0.00 | 0.00 | 35 | 1010.1 |
| 20260905221502 | 37 | 94 | 14.5 | 22.5 | 0.00 | 0.00 | 0.00 | 34 | 1010.1 |